createdAt,value
2018-06-17T00:01:52.423Z,18.00
2018-06-17T00:04:20.059Z,18.00
2018-06-17T00:06:47.663Z,18.00
2018-06-17T00:09:15.323Z,18.00
2018-06-17T00:11:42.883Z,18.00
2018-06-17T00:14:10.518Z,17.90
2018-06-17T00:16:38.202Z,17.90
2018-06-17T00:19:05.903Z,17.90
2018-06-17T00:21:33.535Z,17.90
2018-06-17T00:24:01.178Z,17.90
2018-06-17T00:26:28.810Z,17.90
2018-06-17T00:28:56.452Z,17.90
2018-06-17T00:31:24.077Z,17.80
2018-06-17T00:33:52.133Z,17.80
2018-06-17T00:36:19.721Z,17.80
2018-06-17T00:38:47.300Z,17.70
2018-06-17T00:41:14.930Z,17.70
2018-06-17T00:43:42.500Z,17.70
2018-06-17T00:46:10.175Z,17.70
2018-06-17T00:48:37.758Z,17.70
2018-06-17T00:51:05.408Z,17.70
2018-06-17T00:53:33.003Z,17.70
2018-06-17T00:56:00.616Z,17.60
2018-06-17T00:58:28.185Z,17.50
2018-06-17T01:00:55.862Z,17.40
2018-06-17T01:03:23.490Z,17.40
2018-06-17T01:05:51.156Z,17.40
2018-06-17T01:08:18.738Z,17.40
2018-06-17T01:10:46.466Z,17.30
2018-06-17T01:13:14.094Z,17.30
2018-06-17T01:15:41.718Z,17.30
2018-06-17T01:18:09.418Z,17.20
2018-06-17T01:23:04.861Z,17.10
2018-06-17T01:25:32.498Z,17.00
2018-06-17T01:28:00.132Z,17.00
2018-06-17T01:30:27.759Z,16.90
2018-06-17T01:32:55.387Z,16.90
2018-06-17T01:37:50.819Z,16.90
2018-06-17T01:40:18.517Z,16.90
2018-06-17T01:42:46.150Z,16.90
2018-06-17T01:45:13.793Z,16.90
2018-06-17T01:47:41.729Z,16.90
2018-06-17T01:50:09.437Z,16.90
2018-06-17T01:52:36.985Z,16.90
2018-06-17T01:57:32.692Z,16.90
2018-06-17T02:00:00.380Z,16.90
2018-06-17T02:02:28.024Z,16.90
2018-06-17T02:05:01.371Z,16.80
2018-06-17T02:07:34.890Z,16.80
2018-06-17T02:10:08.434Z,16.80
2018-06-17T02:12:36.130Z,16.90
2018-06-17T02:15:04.503Z,17.00
2018-06-17T02:17:32.160Z,17.10
2018-06-17T02:19:59.730Z,17.10
2018-06-17T02:22:27.350Z,17.10
2018-06-17T02:24:55.096Z,17.10
2018-06-17T02:27:22.664Z,17.00
2018-06-17T02:29:50.318Z,16.90
2018-06-17T02:32:17.933Z,16.80
2018-06-17T02:34:45.520Z,16.90
2018-06-17T02:37:13.150Z,16.90
2018-06-17T02:39:40.774Z,16.90
2018-06-17T02:42:09.168Z,17.00
2018-06-17T02:44:37.080Z,17.00
2018-06-17T02:47:10.954Z,17.00
2018-06-17T02:49:42.131Z,17.10
2018-06-17T02:52:15.632Z,17.10
2018-06-17T02:54:44.450Z,17.00
2018-06-17T02:57:14.164Z,17.00
2018-06-17T02:59:42.529Z,17.10
2018-06-17T03:02:10.526Z,17.20
2018-06-17T03:04:38.212Z,17.20
2018-06-17T03:07:05.861Z,17.20
2018-06-17T03:09:33.506Z,17.20
2018-06-17T03:12:01.186Z,17.10
2018-06-17T03:14:28.818Z,17.20
2018-06-17T03:16:56.438Z,17.10
2018-06-17T03:19:24.067Z,17.20
2018-06-17T03:21:51.934Z,17.10
2018-06-17T03:24:25.411Z,17.10
2018-06-17T03:26:58.813Z,17.20
2018-06-17T03:29:32.104Z,17.30
2018-06-17T03:32:05.726Z,17.30
2018-06-17T03:34:33.366Z,17.40
2018-06-17T03:37:00.934Z,17.30
2018-06-17T03:39:28.622Z,17.40
2018-06-17T03:41:56.295Z,17.40
2018-06-17T03:44:25.111Z,17.40
2018-06-17T03:46:53.352Z,17.40
2018-06-17T03:49:20.978Z,17.50
2018-06-17T03:51:48.559Z,17.60
2018-06-17T03:54:16.302Z,17.70
2018-06-17T03:56:43.966Z,17.70
2018-06-17T03:59:11.558Z,17.80
2018-06-17T04:01:39.825Z,17.90
2018-06-17T04:04:07.517Z,18.00
2018-06-17T04:06:35.192Z,18.20
2018-06-17T04:09:04.162Z,18.40
2018-06-17T04:11:31.804Z,18.40
2018-06-17T04:13:59.444Z,18.50
2018-06-17T04:16:27.058Z,18.30
2018-06-17T04:18:54.721Z,18.50
2018-06-17T04:21:22.357Z,18.70
2018-06-17T04:23:49.993Z,18.70
2018-06-17T04:26:17.927Z,18.70
2018-06-17T04:28:45.607Z,18.50
2018-06-17T04:31:13.285Z,18.60
2018-06-17T04:33:40.861Z,18.90
2018-06-17T04:36:08.445Z,19.00
2018-06-17T04:38:36.055Z,18.80
2018-06-17T04:41:03.693Z,18.80
2018-06-17T04:43:31.411Z,19.00
2018-06-17T04:45:59.038Z,18.80
2018-06-17T04:48:26.670Z,19.00
2018-06-17T04:53:21.991Z,19.00
2018-06-17T04:55:49.601Z,19.20
2018-06-17T04:58:17.208Z,19.20
2018-06-17T05:00:44.848Z,19.20
2018-06-17T05:03:12.426Z,19.40
2018-06-17T05:05:40.064Z,19.70
2018-06-17T05:08:07.724Z,19.70
2018-06-17T05:10:35.393Z,19.60
2018-06-17T05:13:03.084Z,19.60
2018-06-17T05:15:30.699Z,19.70
2018-06-17T05:17:58.380Z,19.70
2018-06-17T05:20:25.971Z,19.80
2018-06-17T05:22:53.649Z,19.70
2018-06-17T05:25:21.270Z,19.90
2018-06-17T05:27:48.847Z,20.00
2018-06-17T05:30:16.515Z,20.10
2018-06-17T05:32:44.135Z,20.00
2018-06-17T05:35:11.725Z,19.90
2018-06-17T05:37:39.355Z,19.90
2018-06-17T05:40:07.007Z,20.20
2018-06-17T05:42:35.023Z,20.10
2018-06-17T05:45:02.618Z,20.20
2018-06-17T05:47:30.272Z,20.40
2018-06-17T05:52:25.602Z,20.70
2018-06-17T05:54:53.514Z,20.50
2018-06-17T05:57:21.050Z,20.30
2018-06-17T05:59:48.638Z,20.50
2018-06-17T06:02:16.286Z,20.90
2018-06-17T06:04:43.922Z,21.40
2018-06-17T06:07:11.582Z,21.50
2018-06-17T06:09:39.216Z,21.50
2018-06-17T06:12:06.910Z,21.70
2018-06-17T06:14:34.613Z,22.20
2018-06-17T06:17:02.915Z,22.20
2018-06-17T06:19:30.763Z,22.90
2018-06-17T06:21:58.477Z,23.50
2018-06-17T06:24:26.099Z,23.60
2018-06-17T06:26:53.794Z,23.70
2018-06-17T06:29:21.389Z,24.00
2018-06-17T06:31:48.979Z,24.20
2018-06-17T06:34:16.580Z,24.50
2018-06-17T06:36:44.209Z,24.80
2018-06-17T06:39:11.937Z,24.80
2018-06-17T06:41:39.730Z,24.80
2018-06-17T06:44:07.390Z,25.10
2018-06-17T06:46:35.974Z,25.10
2018-06-17T06:49:03.699Z,25.00
2018-06-17T06:51:31.313Z,25.10
2018-06-17T06:53:58.966Z,25.30
2018-06-17T06:56:26.559Z,25.10
2018-06-17T07:01:39.538Z,25.60
2018-06-17T07:04:24.665Z,26.00
2018-06-17T07:07:09.938Z,25.60
2018-06-17T07:09:58.850Z,25.30
2018-06-17T07:12:26.522Z,25.70
2018-06-17T07:14:54.228Z,26.10
2018-06-17T07:17:39.539Z,26.30
2018-06-17T07:20:07.209Z,26.50
2018-06-17T07:22:34.827Z,26.20
2018-06-17T07:25:02.580Z,26.00
2018-06-17T07:28:49.513Z,26.10
2018-06-17T07:31:17.198Z,26.80
2018-06-17T07:33:44.828Z,26.80
2018-06-17T07:36:12.408Z,26.80
2018-06-17T07:38:40.019Z,26.70
2018-06-17T07:41:08.027Z,26.60
2018-06-17T07:46:03.342Z,26.20
2018-06-17T07:49:49.210Z,26.50
2018-06-17T07:52:35.696Z,26.50
2018-06-17T07:55:03.502Z,26.90
2018-06-17T07:57:32.348Z,27.10
2018-06-17T08:00:00.097Z,27.30
2018-06-17T08:02:27.892Z,27.50
2018-06-17T08:04:55.495Z,27.10
2018-06-17T08:07:23.124Z,27.00
2018-06-17T08:09:50.776Z,27.20
2018-06-17T08:12:18.375Z,27.30
2018-06-17T08:14:46.201Z,27.50
2018-06-17T08:17:13.836Z,27.40
2018-06-17T08:19:41.740Z,27.00
2018-06-17T08:22:09.375Z,26.50
2018-06-17T08:24:37.489Z,26.30
2018-06-17T08:27:05.201Z,26.50
2018-06-17T08:29:32.785Z,26.50
2018-06-17T08:32:00.409Z,26.90
2018-06-17T08:34:28.049Z,27.00
2018-06-17T08:36:55.681Z,26.60
2018-06-17T08:39:24.357Z,26.60
2018-06-17T08:41:52.019Z,26.60
2018-06-17T08:44:20.007Z,26.90
2018-06-17T08:46:49.061Z,27.10
2018-06-17T08:49:17.145Z,26.70
2018-06-17T08:51:44.815Z,26.70
2018-06-17T08:54:12.466Z,26.80
2018-06-17T08:56:40.117Z,27.10
2018-06-17T08:59:07.821Z,26.70
2018-06-17T09:01:35.458Z,26.60
2018-06-17T09:04:03.089Z,26.70
2018-06-17T09:06:30.726Z,26.90
2018-06-17T09:08:58.471Z,27.00
2018-06-17T09:11:26.071Z,27.40
2018-06-17T09:13:54.380Z,26.60
2018-06-17T09:16:22.470Z,26.70
2018-06-17T09:18:50.172Z,26.90
2018-06-17T09:21:17.898Z,27.10
2018-06-17T09:23:45.639Z,27.30
2018-06-17T09:26:13.592Z,27.40
2018-06-17T09:28:41.341Z,27.50
2018-06-17T09:31:09.178Z,27.70
2018-06-17T09:33:36.784Z,27.50
2018-06-17T09:36:04.690Z,27.60
2018-06-17T09:38:32.569Z,28.00
2018-06-17T09:41:00.183Z,28.30
2018-06-17T09:43:27.770Z,28.30
2018-06-17T09:45:55.391Z,28.20
2018-06-17T09:48:23.005Z,28.40
2018-06-17T09:50:50.641Z,28.50
2018-06-17T09:53:18.249Z,28.30
2018-06-17T09:55:45.911Z,28.40
2018-06-17T09:58:13.587Z,27.50
2018-06-17T10:00:41.201Z,27.60
2018-06-17T10:03:08.759Z,27.70
2018-06-17T10:05:36.440Z,27.60
2018-06-17T10:10:48.275Z,27.20
2018-06-17T10:13:16.515Z,27.70
2018-06-17T10:15:44.825Z,27.60
2018-06-17T10:18:13.275Z,27.80
2018-06-17T10:20:40.945Z,27.90
2018-06-17T10:23:08.997Z,28.40
2018-06-17T10:25:37.097Z,28.50
2018-06-17T10:28:05.465Z,28.10
2018-06-17T10:30:33.461Z,28.40
2018-06-17T10:33:01.126Z,28.60
2018-06-17T10:35:28.759Z,28.80
2018-06-17T10:37:56.740Z,28.40
2018-06-17T10:40:24.524Z,29.00
2018-06-17T10:42:52.086Z,28.90
2018-06-17T10:45:19.722Z,29.40
2018-06-17T10:47:47.556Z,29.30
2018-06-17T10:50:15.782Z,29.30
2018-06-17T10:52:43.610Z,28.80
2018-06-17T10:55:12.950Z,28.80
2018-06-17T10:57:40.844Z,29.20
2018-06-17T11:00:09.624Z,28.70
2018-06-17T11:02:37.654Z,28.80
2018-06-17T11:05:05.831Z,29.30
2018-06-17T11:07:34.138Z,29.60
2018-06-17T11:10:02.282Z,29.30
2018-06-17T11:12:30.224Z,28.90
2018-06-17T11:14:58.506Z,29.00
2018-06-17T11:17:26.112Z,29.10
2018-06-17T11:19:53.759Z,28.70
2018-06-17T11:22:21.735Z,28.30
2018-06-17T11:24:49.419Z,29.00
2018-06-17T11:27:17.083Z,29.30
2018-06-17T11:29:44.682Z,29.30
2018-06-17T11:32:12.271Z,29.10
2018-06-17T11:35:43.365Z,29.20
2018-06-17T11:38:11.029Z,29.50
2018-06-17T11:40:38.661Z,30.20
2018-06-17T11:43:06.287Z,30.50
2018-06-17T11:45:34.127Z,30.80
2018-06-17T11:48:01.957Z,30.70
2018-06-17T11:50:29.612Z,31.80
2018-06-17T11:52:57.231Z,32.20
2018-06-17T11:55:24.827Z,31.80
2018-06-17T11:57:52.428Z,31.40
2018-06-17T12:00:20.076Z,31.70
2018-06-17T12:02:47.648Z,31.00
2018-06-17T12:05:15.546Z,29.40
2018-06-17T12:07:43.796Z,29.60
2018-06-17T12:10:11.982Z,29.90
2018-06-17T12:12:39.560Z,30.20
2018-06-17T12:15:07.218Z,30.80
2018-06-17T12:17:34.847Z,32.70
2018-06-17T12:20:02.498Z,35.20
2018-06-17T12:22:30.077Z,36.60
2018-06-17T12:24:57.696Z,35.70
2018-06-17T12:27:25.646Z,33.60
2018-06-17T12:29:53.255Z,32.20
2018-06-17T12:32:20.869Z,31.50
2018-06-17T12:34:48.443Z,31.50
2018-06-17T12:37:16.104Z,32.70
2018-06-17T12:39:43.795Z,34.70
2018-06-17T12:42:11.443Z,36.90
2018-06-17T12:44:39.132Z,39.50
2018-06-17T12:47:06.781Z,39.70
2018-06-17T12:49:34.359Z,40.50
2018-06-17T12:52:02.081Z,40.30
2018-06-17T12:54:29.807Z,39.90
2018-06-17T12:56:57.958Z,39.90
2018-06-17T12:59:25.718Z,41.20
2018-06-17T13:01:53.478Z,41.00
2018-06-17T13:04:21.074Z,40.60
2018-06-17T13:06:49.322Z,39.70
2018-06-17T13:09:17.510Z,35.40
2018-06-17T13:11:45.393Z,34.90
2018-06-17T13:14:12.970Z,33.60
2018-06-17T13:16:40.598Z,32.30
2018-06-17T13:19:09.194Z,31.10
2018-06-17T13:21:37.262Z,30.00
2018-06-17T13:24:06.708Z,29.00
2018-06-17T13:26:34.418Z,28.20
2018-06-17T13:29:02.079Z,27.60
2018-06-17T13:31:29.697Z,27.10
2018-06-17T13:33:57.395Z,26.40
2018-06-17T13:36:25.057Z,25.80
2018-06-17T13:38:52.893Z,25.30
2018-06-17T13:41:21.201Z,24.60
2018-06-17T13:43:48.825Z,24.40
2018-06-17T13:46:16.524Z,24.00
2018-06-17T13:48:44.219Z,23.90
2018-06-17T13:51:12.053Z,23.70
2018-06-17T13:53:39.723Z,23.60
2018-06-17T13:56:07.375Z,23.50
2018-06-17T13:58:35.027Z,23.50
2018-06-17T14:01:02.630Z,23.40
2018-06-17T14:03:30.191Z,23.30
2018-06-17T14:05:57.758Z,23.20
2018-06-17T14:08:26.093Z,23.00
2018-06-17T14:10:54.038Z,22.80
2018-06-17T14:13:21.662Z,22.70
2018-06-17T14:15:49.264Z,22.50
2018-06-17T14:18:16.884Z,22.30
2018-06-17T14:20:44.460Z,22.10
2018-06-17T14:23:12.046Z,21.80
2018-06-17T14:25:39.681Z,21.70
2018-06-17T14:28:07.533Z,21.20
2018-06-17T14:30:35.138Z,20.80
2018-06-17T14:33:02.758Z,20.50
2018-06-17T14:35:30.354Z,20.20
2018-06-17T14:37:57.926Z,20.10
2018-06-17T14:40:25.521Z,19.90
2018-06-17T14:42:58.876Z,20.00
2018-06-17T14:45:32.437Z,20.00
2018-06-17T14:48:05.885Z,20.10
2018-06-17T14:50:39.181Z,20.20
2018-06-17T14:53:07.256Z,20.30
2018-06-17T14:55:34.902Z,20.30
2018-06-17T14:58:02.653Z,20.40
2018-06-17T15:00:30.252Z,20.50
2018-06-17T15:02:57.870Z,20.50
2018-06-17T15:05:25.474Z,20.60
2018-06-17T15:07:53.132Z,20.70
2018-06-17T15:10:20.822Z,20.60
2018-06-17T15:12:48.495Z,20.60
2018-06-17T15:15:16.022Z,20.50
2018-06-17T15:17:43.625Z,20.50
2018-06-17T15:20:11.443Z,20.70
2018-06-17T15:22:39.088Z,20.70
2018-06-17T15:25:06.706Z,20.80
2018-06-17T15:30:02.067Z,21.10
2018-06-17T15:32:35.397Z,21.20
2018-06-17T15:35:08.917Z,21.20
2018-06-17T15:37:42.265Z,21.50
2018-06-17T15:40:09.949Z,21.40
2018-06-17T15:42:37.985Z,21.60
2018-06-17T15:45:05.635Z,21.80
2018-06-17T15:47:33.225Z,22.30
2018-06-17T15:50:00.845Z,22.40
2018-06-17T15:52:28.476Z,22.60
2018-06-17T15:54:56.103Z,22.20
2018-06-17T15:57:23.673Z,21.90
2018-06-17T15:59:51.327Z,22.00
2018-06-17T16:02:18.930Z,21.90
2018-06-17T16:04:46.553Z,21.70
2018-06-17T16:07:14.196Z,21.60
2018-06-17T16:09:42.504Z,20.90
2018-06-17T16:12:15.868Z,20.60
2018-06-17T16:14:49.415Z,20.40
2018-06-17T16:17:22.891Z,20.30
2018-06-17T16:19:56.368Z,20.20
2018-06-17T16:22:24.049Z,20.20
2018-06-17T16:24:51.632Z,20.30
2018-06-17T16:27:19.333Z,20.50
2018-06-17T16:29:47.015Z,20.90
2018-06-17T16:32:14.640Z,21.30
2018-06-17T16:34:42.264Z,21.60
2018-06-17T16:37:09.957Z,21.80
2018-06-17T16:39:37.645Z,21.80
2018-06-17T16:42:05.301Z,22.00
2018-06-17T16:44:32.906Z,22.20
2018-06-17T16:47:00.523Z,22.30
2018-06-17T16:49:28.126Z,22.20
2018-06-17T16:52:01.754Z,22.40
2018-06-17T16:54:35.279Z,22.40
2018-06-17T16:57:08.675Z,22.40
2018-06-17T16:59:42.228Z,22.40
2018-06-17T17:02:09.881Z,22.60
2018-06-17T17:04:40.380Z,22.20
2018-06-17T17:07:10.026Z,22.10
2018-06-17T17:09:39.116Z,22.10
2018-06-17T17:12:08.027Z,21.90
2018-06-17T17:14:37.074Z,22.00
2018-06-17T17:17:06.786Z,22.10
2018-06-17T17:19:36.738Z,22.10
2018-06-17T17:22:06.671Z,22.00
2018-06-17T17:24:36.464Z,21.90
2018-06-17T17:27:06.736Z,21.70
2018-06-17T17:29:35.833Z,21.70
2018-06-17T17:32:10.429Z,21.60
2018-06-17T17:34:45.533Z,21.50
2018-06-17T17:37:19.924Z,21.50
2018-06-17T17:39:54.169Z,21.40
2018-06-17T17:42:23.187Z,21.40
2018-06-17T17:44:58.440Z,21.50
2018-06-17T17:47:28.385Z,21.40
2018-06-17T17:49:55.973Z,21.40
2018-06-17T17:52:23.612Z,21.40
2018-06-17T17:54:51.272Z,21.20
2018-06-17T17:57:19.134Z,21.30
2018-06-17T17:59:46.732Z,21.00
2018-06-17T18:02:14.466Z,21.10
2018-06-17T18:04:42.153Z,21.20
2018-06-17T18:07:09.752Z,21.20
2018-06-17T18:09:37.395Z,21.10
2018-06-17T18:12:05.011Z,20.90
2018-06-17T18:14:32.651Z,21.00
2018-06-17T18:17:00.262Z,21.00
2018-06-17T18:19:29.202Z,20.90
2018-06-17T18:21:57.075Z,20.90
2018-06-17T18:24:24.911Z,20.90
2018-06-17T18:26:58.398Z,21.00
2018-06-17T18:30:34.557Z,21.10
2018-06-17T18:33:08.071Z,21.20
2018-06-17T18:35:41.498Z,21.10
2018-06-17T18:38:09.160Z,21.10
2018-06-17T18:40:36.766Z,21.00
2018-06-17T18:43:04.779Z,21.00
2018-06-17T18:45:32.428Z,20.90
2018-06-17T18:48:00.035Z,20.80
2018-06-17T18:50:27.787Z,20.70
2018-06-17T18:52:55.521Z,20.80
2018-06-17T18:55:23.150Z,20.70
2018-06-17T18:57:50.791Z,20.60
2018-06-17T19:00:18.399Z,20.40
2018-06-17T19:02:46.016Z,20.30
2018-06-17T19:05:13.651Z,20.30
2018-06-17T19:07:41.241Z,20.20
2018-06-17T19:10:14.730Z,20.30
2018-06-17T19:12:48.156Z,20.10
2018-06-17T19:15:21.639Z,20.20
2018-06-17T19:17:55.222Z,20.10
2018-06-17T19:20:22.914Z,19.90
2018-06-17T19:22:50.532Z,19.90
2018-06-17T19:25:18.196Z,19.80
2018-06-17T19:27:45.884Z,19.80
2018-06-17T19:30:13.545Z,19.80
2018-06-17T19:32:41.157Z,19.80
2018-06-17T19:35:08.839Z,19.80
2018-06-17T19:37:36.480Z,19.70
2018-06-17T19:40:04.527Z,19.70
2018-06-17T19:42:32.227Z,19.70
2018-06-17T19:44:59.833Z,19.60
2018-06-17T19:47:27.684Z,19.60
2018-06-17T19:50:01.131Z,19.60
2018-06-17T19:52:34.569Z,19.60
2018-06-17T19:55:08.111Z,19.60
2018-06-17T19:57:42.956Z,19.50
2018-06-17T20:00:16.551Z,19.50
2018-06-17T20:02:44.245Z,19.50
2018-06-17T20:05:11.912Z,19.30
2018-06-17T20:07:39.695Z,19.20
2018-06-17T20:10:07.729Z,19.10
2018-06-17T20:12:36.621Z,19.00
2018-06-17T20:15:04.899Z,19.00
2018-06-17T20:17:32.562Z,18.90
2018-06-17T20:20:00.251Z,18.70
2018-06-17T20:22:27.902Z,18.60
2018-06-17T20:24:55.584Z,18.60
2018-06-17T20:27:23.198Z,18.50
2018-06-17T20:29:50.824Z,18.50
2018-06-17T20:32:24.269Z,18.50
2018-06-17T20:34:57.572Z,18.50
2018-06-17T20:37:31.131Z,18.50
2018-06-17T20:40:04.611Z,18.50
2018-06-17T20:42:38.172Z,18.50
2018-06-17T20:45:05.862Z,18.50
2018-06-17T20:47:33.495Z,18.60
2018-06-17T20:50:02.146Z,18.60
2018-06-17T20:52:30.096Z,18.60
2018-06-17T20:54:57.820Z,18.60
2018-06-17T20:57:25.541Z,18.50
2018-06-17T20:59:53.182Z,18.50
2018-06-17T21:02:20.878Z,18.60
2018-06-17T21:04:48.494Z,18.50
2018-06-17T21:07:16.073Z,18.50
2018-06-17T21:09:43.725Z,18.50
2018-06-17T21:12:11.317Z,18.50
2018-06-17T21:14:39.025Z,18.50
2018-06-17T21:17:06.667Z,18.40
2018-06-17T21:19:39.992Z,18.50
2018-06-17T21:22:13.463Z,18.50
2018-06-17T21:24:47.027Z,18.50
2018-06-17T21:27:20.602Z,18.60
2018-06-17T21:29:48.299Z,18.60
2018-06-17T21:32:15.964Z,18.60
2018-06-17T21:34:43.554Z,18.50
2018-06-17T21:37:11.131Z,18.60
2018-06-17T21:39:38.753Z,18.60
2018-06-17T21:42:06.366Z,18.60
2018-06-17T21:44:33.969Z,18.70
2018-06-17T21:47:01.557Z,18.70
2018-06-17T21:49:29.178Z,18.80
2018-06-17T21:51:56.877Z,18.70
2018-06-17T21:54:24.477Z,18.80
2018-06-17T21:56:52.165Z,18.70
2018-06-17T21:59:19.782Z,18.80
2018-06-17T22:01:47.437Z,18.80
2018-06-17T22:04:20.985Z,18.90
2018-06-17T22:06:48.648Z,18.90
2018-06-17T22:09:22.084Z,18.90
2018-06-17T22:11:55.535Z,18.80
2018-06-17T22:14:28.828Z,18.80
2018-06-17T22:17:02.172Z,18.80
2018-06-17T22:19:29.804Z,18.90
2018-06-17T22:21:57.440Z,19.00
2018-06-17T22:24:25.020Z,19.10
2018-06-17T22:26:52.922Z,19.20
2018-06-17T22:29:20.554Z,19.20
2018-06-17T22:31:48.373Z,19.20
2018-06-17T22:34:15.902Z,19.30
2018-06-17T22:36:43.482Z,19.30
2018-06-17T22:39:11.061Z,19.30
2018-06-17T22:41:39.501Z,19.40
2018-06-17T22:46:34.986Z,19.40
2018-06-17T22:49:02.579Z,19.40
2018-06-17T22:51:30.186Z,19.40
2018-06-17T22:54:15.245Z,19.50
2018-06-17T22:56:48.682Z,19.50
2018-06-17T22:59:22.085Z,19.50
2018-06-17T23:01:55.332Z,19.40
2018-06-17T23:04:28.613Z,19.40
2018-06-17T23:07:01.924Z,19.40
2018-06-17T23:09:35.682Z,19.40
2018-06-17T23:12:03.578Z,19.40
2018-06-17T23:14:31.210Z,19.40
2018-06-17T23:16:58.822Z,19.50
2018-06-17T23:19:26.394Z,19.40
2018-06-17T23:21:54.228Z,19.40
2018-06-17T23:24:22.068Z,19.40
2018-06-17T23:26:49.868Z,19.40
2018-06-17T23:29:17.524Z,19.40
2018-06-17T23:31:45.204Z,19.30
2018-06-17T23:34:12.871Z,19.30
2018-06-17T23:36:40.498Z,19.20
2018-06-17T23:39:09.859Z,19.20
2018-06-17T23:41:37.459Z,19.20
2018-06-17T23:44:05.134Z,19.20
2018-06-17T23:46:38.578Z,19.10
2018-06-17T23:49:11.911Z,19.00
2018-06-17T23:51:45.278Z,19.00
2018-06-17T23:54:18.633Z,19.00
2018-06-17T23:56:46.289Z,19.00
2018-06-17T23:59:13.924Z,19.00
